ADDS TAF Board (Experimental) INFO

IDs: Format: Expanded Condensed

Updated at: 0917 UTC 23 Oct 2014

KCVG - Cincinnati Intl, KY, US

Issued at 0811 UTC 23 Oct 2014
Time0852Z23/10Z23/11Z23/12Z23/13Z23/14Z23/15Z23/16Z23/17Z23/18Z23/19Z23/20Z23/21Z23/22Z
TypeOBSPRVLPRVLPRVLPRVLPRVLPRVLPRVLPRVLPRVLPRVLPRVLPRVLPRVL
VIS9>6>6>6>6>6>6>6>6>6>6>6>6>6
CIG2730------------------------
CoverOVCOVCSCTSCTSCTSCTSCTSCTSCTSCTSCTSCTSCTSCT
FltCatMVFRMVFRVFRVFRVFRVFRVFRVFRVFRVFRVFRVFRVFRVFR
WX----------------------------
WDirVRB360VRBVRBVRBVRB290290290290290290290290
WSpd03333344444444
WGst----------------------------
R09/27
XWndVRB3VRBVRBVRBVRB11111111
HWndVRB-0VRBVRBVRBVRB-4-4-4-4-4-4-4-4
R18/36
XWndVRB-0VRBVRBVRBVRB-4-4-4-4-4-4-4-4
HWndVRB-3VRBVRBVRBVRB-1-1-1-1-1-1-1-1
Raw TAF
KCVG 230811Z 2308/2412 36003KT P6SM OVC030
  FM231100 VRB03KT P6SM SCT035
  FM231500 29004KT P6SM SCT250
  FM240300 VRB03KT P6SM BKN250


Raw METAR
KCVG 230852Z 00000KT 9SM OVC027 08/04 A3025 RMK AO2 SLP241 BINOVC OHD T00830044 58001

TAF Board Legend

Hazard VFR MVFR IFR LIFR
Visibility (sm) >5 3≤X≤5 1≤X<3 <1
Ceiling (100 ft) >30 10≤X≤30 5≤X<10 <5
Wind Speed (kt) <10 10≤X<20 20≤X<30 ≥30
Wind Gust (kt) <15 15≤X<25 25≤X<35 ≥35
Weather No Wx Reported VCTS,-TS,-FZRA TS,FZRA +TS,+FZRA


Page loaded:  09:17 UTC  |   02:17 AM Pacific  |   03:17 AM Mountain  |   04:17 AM Central  |   05:17 AM Eastern

 

ADVISORIES

FORECASTS

FORECASTS

OBSERVATIONS

USER TOOLS

ABOUT US